Time;durP1;ratioP1;P1;durP2;ratioP2;P2;SDS_P1;SDS_P2;PMS_P1;PMS_P2;Temp;Humidity;BMP_temperature;BMP_pressure;BME280_temperature;BME280_humidity;BME280_pressure;Samples;Min_cycle;Max_cycle;Signal;HPM_P1;HPM_P2
2021/12/11 00:01:47;;;;;;;0.90;0.70;;;17.30;44.80;;;;;;5107676;27;46762;-16
2021/12/11 00:04:15;;;;;;;6.13;0.93;;;17.30;44.80;;;;;;5107713;27;49106;-16
2021/12/11 00:06:43;;;;;;;1.15;0.85;;;17.30;44.80;;;;;;5107228;27;47161;-16
2021/12/11 00:09:11;;;;;;;1.77;0.80;;;17.30;44.90;;;;;;5107551;27;46771;-17
2021/12/11 00:11:41;;;;;;;6.07;1.10;;;17.20;44.90;;;;;;5107567;27;46868;-18
2021/12/11 00:14:09;;;;;;;1.27;0.65;;;17.20;45.00;;;;;;5107565;27;47935;-16
2021/12/11 00:16:37;;;;;;;1.15;0.80;;;17.20;44.90;;;;;;5107072;27;46932;-16
2021/12/11 00:19:06;;;;;;;3.20;0.77;;;17.20;45.00;;;;;;5107421;27;46884;-17
2021/12/11 00:21:33;;;;;;;1.65;0.93;;;17.20;45.00;;;;;;5107677;27;46915;-16
2021/12/11 00:24:03;;;;;;;1.70;0.93;;;17.20;45.10;;;;;;5107471;27;46913;-17
2021/12/11 00:26:31;;;;;;;1.88;0.80;;;17.10;45.10;;;;;;5107320;27;46891;-16
2021/12/11 00:28:58;;;;;;;1.98;0.77;;;17.10;45.10;;;;;;5107451;27;46966;-16
2021/12/11 00:31:25;;;;;;;2.60;0.70;;;17.10;45.00;;;;;;5107073;27;46903;-17
2021/12/11 00:33:53;;;;;;;2.00;0.70;;;17.10;45.00;;;;;;5107267;27;48112;-16
2021/12/11 00:36:22;;;;;;;1.80;0.80;;;17.10;45.10;;;;;;5107422;27;47003;-25
2021/12/11 00:38:49;;;;;;;1.98;0.70;;;17.10;45.10;;;;;;5107339;27;46834;-25
2021/12/11 00:41:17;;;;;;;0.80;0.73;;;17.10;45.10;;;;;;5107245;27;46906;-25
2021/12/11 00:43:45;;;;;;;1.40;0.85;;;17.10;45.10;;;;;;5107089;27;46996;-25
2021/12/11 00:46:13;;;;;;;2.83;0.77;;;17.00;45.10;;;;;;5107000;27;47031;-25
2021/12/11 00:48:40;;;;;;;2.35;0.70;;;17.00;45.20;;;;;;5107149;27;46746;-25
2021/12/11 00:51:09;;;;;;;0.60;0.60;;;17.00;45.30;;;;;;5106788;27;47281;-25
2021/12/11 00:53:37;;;;;;;0.70;0.57;;;17.00;45.30;;;;;;5106984;27;46835;-25
2021/12/11 00:56:05;;;;;;;0.73;0.60;;;17.00;45.30;;;;;;5106379;27;47445;-25
2021/12/11 00:58:33;;;;;;;0.90;0.52;;;16.90;45.30;;;;;;5107224;27;46872;-25
2021/12/11 01:01:01;;;;;;;1.13;0.60;;;16.90;45.30;;;;;;5107002;27;47223;-25
2021/12/11 01:03:30;;;;;;;0.65;0.63;;;16.90;45.30;;;;;;5106673;27;48036;-25
2021/12/11 01:05:59;;;;;;;1.50;0.73;;;16.90;45.30;;;;;;5106360;27;47068;-24
2021/12/11 01:08:31;;;;;;;1.08;0.60;;;16.90;45.30;;;;;;5106604;27;46778;-25
2021/12/11 01:11:03;;;;;;;1.92;0.68;;;16.90;45.40;;;;;;5106995;27;46922;-25
2021/12/11 01:13:31;;;;;;;1.98;0.70;;;16.90;45.40;;;;;;5106422;27;47015;-25
2021/12/11 01:16:05;;;;;;;1.35;0.60;;;16.90;45.40;;;;;;5106465;27;46892;-24
2021/12/11 01:18:37;;;;;;;1.08;0.70;;;16.90;45.50;;;;;;5106010;27;46786;-26
2021/12/11 01:21:24;;;;;;;0.73;0.70;;;16.90;45.50;;;;;;5106929;27;46873;-25
2021/12/11 01:24:09;;;;;;;1.05;0.63;;;16.80;45.40;;;;;;5106398;27;49123;-25
2021/12/11 01:26:36;;;;;;;1.45;0.73;;;16.80;45.50;;;;;;5106080;27;46858;-25
2021/12/11 01:29:04;;;;;;;1.05;0.75;;;16.80;45.50;;;;;;5106305;27;46823;-25
2021/12/11 01:31:30;;;;;;;1.63;0.70;;;16.80;45.50;;;;;;5106105;27;47201;-25
2021/12/11 01:33:57;;;;;;;0.55;0.50;;;16.80;45.60;;;;;;5106290;27;46955;-25
2021/12/11 01:36:24;;;;;;;1.48;0.80;;;16.80;45.50;;;;;;5106299;27;46911;-25
2021/12/11 01:38:55;;;;;;;0.70;0.70;;;16.80;45.50;;;;;;5106169;27;46979;-25
2021/12/11 01:41:22;;;;;;;1.15;0.80;;;16.80;45.50;;;;;;5106465;27;46938;-25
2021/12/11 01:43:50;;;;;;;0.80;0.60;;;16.80;45.50;;;;;;5106178;27;49023;-16
2021/12/11 01:46:19;;;;;;;0.52;0.50;;;16.80;45.50;;;;;;5105861;27;46861;-16
2021/12/11 01:48:48;;;;;;;1.08;0.57;;;16.80;45.60;;;;;;5105903;27;46878;-17
2021/12/11 01:51:17;;;;;;;1.13;0.70;;;16.80;46.20;;;;;;5106217;27;47068;-16
2021/12/11 01:53:46;;;;;;;0.77;0.60;;;16.70;45.50;;;;;;5106072;27;47938;-16
2021/12/11 01:56:16;;;;;;;1.05;0.63;;;16.70;45.60;;;;;;5105309;27;46905;-17
2021/12/11 01:58:44;;;;;;;1.33;0.82;;;16.80;45.70;;;;;;5106114;27;46880;-16
2021/12/11 02:01:15;;;;;;;0.88;0.60;;;16.70;45.60;;;;;;5105807;27;46849;-16
2021/12/11 02:03:41;;;;;;;0.85;0.68;;;16.70;45.50;;;;;;5105968;27;47924;-16
2021/12/11 02:06:08;;;;;;;1.10;0.75;;;16.70;45.60;;;;;;5105892;27;46989;-16
2021/12/11 02:08:36;;;;;;;0.55;0.55;;;16.70;45.50;;;;;;5105789;27;46839;-16
2021/12/11 02:11:05;;;;;;;1.02;0.90;;;16.70;45.50;;;;;;5106079;27;46967;-16
2021/12/11 02:13:40;;;;;;;1.05;0.50;;;16.70;45.50;;;;;;5105592;27;47825;-16
2021/12/11 02:16:07;;;;;;;1.40;1.00;;;16.70;45.50;;;;;;5105598;27;46807;-17
2021/12/11 02:18:36;;;;;;;0.88;0.70;;;16.70;45.40;;;;;;5105929;27;46922;-16
2021/12/11 02:21:05;;;;;;;1.85;0.75;;;16.70;45.50;;;;;;5105624;27;46890;-16
2021/12/11 02:23:33;;;;;;;1.10;0.65;;;16.70;45.50;;;;;;5105830;27;46920;-16
2021/12/11 02:26:02;;;;;;;1.70;0.70;;;16.70;45.60;;;;;;5105456;27;46974;-16
2021/12/11 02:28:31;;;;;;;1.35;0.60;;;16.70;45.60;;;;;;5105733;27;46861;-16
2021/12/11 02:31:05;;;;;;;1.02;0.70;;;16.70;45.60;;;;;;5109051;27;47247;-18
2021/12/11 02:33:33;;;;;;;0.88;0.63;;;16.70;45.60;;;;;;5109322;27;46954;-16
2021/12/11 02:36:09;;;;;;;1.45;0.80;;;16.70;45.70;;;;;;5108729;27;46959;-17
2021/12/11 02:38:39;;;;;;;0.80;0.57;;;16.70;45.60;;;;;;5109099;27;46872;-16
2021/12/11 02:41:08;;;;;;;0.60;0.60;;;16.70;45.60;;;;;;5108904;27;46827;-16
2021/12/11 02:43:38;;;;;;;0.50;0.45;;;16.70;45.70;;;;;;5109098;27;48106;-17
2021/12/11 02:46:06;;;;;;;2.45;0.80;;;16.60;45.50;;;;;;5108632;27;47361;-16
2021/12/11 02:48:34;;;;;;;2.35;0.63;;;16.60;45.60;;;;;;5109166;27;46798;-25
2021/12/11 02:51:07;;;;;;;1.00;0.63;;;16.60;45.60;;;;;;5109014;27;46948;-25
2021/12/11 02:53:38;;;;;;;0.50;0.50;;;16.60;45.70;;;;;;5108973;27;48238;-16
2021/12/11 02:56:09;;;;;;;1.30;0.60;;;16.60;45.60;;;;;;5108323;27;46972;-25
2021/12/11 02:58:37;;;;;;;0.90;0.60;;;16.60;45.60;;;;;;5109092;27;46969;-25
2021/12/11 03:01:06;;;;;;;1.58;0.70;;;16.60;45.70;;;;;;5108927;27;46902;-25
2021/12/11 03:03:39;;;;;;;1.45;0.70;;;16.60;45.60;;;;;;5108793;27;48111;-25
2021/12/11 03:06:11;;;;;;;1.70;0.68;;;16.60;45.70;;;;;;5108421;27;46865;-25
2021/12/11 03:08:40;;;;;;;0.85;0.60;;;16.60;45.70;;;;;;5108827;27;46887;-25
2021/12/11 03:11:09;;;;;;;0.98;0.60;;;16.60;45.70;;;;;;5108824;27;46912;-16
2021/12/11 03:13:38;;;;;;;1.15;0.70;;;16.60;45.70;;;;;;5108368;27;46838;-17
2021/12/11 03:16:05;;;;;;;1.73;0.65;;;16.60;45.70;;;;;;5108436;27;46879;-16
2021/12/11 03:18:32;;;;;;;1.27;0.57;;;16.60;45.80;;;;;;5108381;27;46842;-16
2021/12/11 03:20:59;;;;;;;0.82;0.60;;;16.60;45.70;;;;;;5108584;27;46833;-16
2021/12/11 03:23:25;;;;;;;1.38;0.85;;;16.60;45.70;;;;;;5108163;27;49038;-17
2021/12/11 03:25:54;;;;;;;1.25;0.65;;;16.60;45.80;;;;;;5108358;27;47002;-25
2021/12/11 03:28:21;;;;;;;2.20;0.57;;;16.60;45.80;;;;;;5108187;27;46882;-25
2021/12/11 03:30:56;;;;;;;0.55;0.52;;;16.60;45.80;;;;;;5108428;27;46916;-25
2021/12/11 03:33:23;;;;;;;2.45;0.80;;;16.60;46.40;;;;;;5108340;27;46816;-25
2021/12/11 03:35:50;;;;;;;0.73;0.70;;;16.60;45.80;;;;;;5107822;27;46987;-16
2021/12/11 03:38:17;;;;;;;0.40;0.40;;;16.60;45.80;;;;;;5108299;27;46879;-16
2021/12/11 03:40:44;;;;;;;1.13;0.60;;;16.60;45.70;;;;;;5107529;27;46967;-16
2021/12/11 03:43:13;;;;;;;0.93;0.60;;;16.60;45.80;;;;;;5108094;27;46823;-17
2021/12/11 03:45:41;;;;;;;2.17;0.90;;;16.60;45.80;;;;;;5107508;27;46901;-16
2021/12/11 03:48:10;;;;;;;0.95;0.60;;;16.60;45.80;;;;;;5107896;27;46819;-17
2021/12/11 03:50:37;;;;;;;0.50;0.50;;;16.60;45.70;;;;;;5107774;27;46887;-16
2021/12/11 03:53:03;;;;;;;0.95;0.63;;;16.60;45.80;;;;;;5107719;27;47844;-17
2021/12/11 03:55:33;;;;;;;0.88;0.60;;;16.60;45.80;;;;;;5107477;27;47008;-17
2021/12/11 03:58:01;;;;;;;0.88;0.70;;;16.50;45.80;;;;;;5107724;27;46804;-17
2021/12/11 04:00:33;;;;;;;0.65;0.65;;;16.50;45.80;;;;;;5107747;27;46931;-16
2021/12/11 04:03:04;;;;;;;1.23;0.70;;;16.50;45.80;;;;;;5107828;27;48873;-25
2021/12/11 04:05:31;;;;;;;0.98;0.30;;;16.50;45.90;;;;;;5107729;27;46810;-25
2021/12/11 04:07:58;;;;;;;2.05;0.50;;;16.50;45.90;;;;;;5107812;27;46878;-25
2021/12/11 04:10:27;;;;;;;0.73;0.65;;;16.50;45.90;;;;;;5107451;27;47338;-16
2021/12/11 04:12:54;;;;;;;1.27;0.68;;;16.50;45.90;;;;;;5107304;27;49478;-16
2021/12/11 04:15:21;;;;;;;1.02;0.60;;;16.50;45.80;;;;;;5107160;27;46942;-16
2021/12/11 04:17:49;;;;;;;0.90;0.68;;;16.50;45.90;;;;;;5107328;27;46869;-16
2021/12/11 04:20:17;;;;;;;1.30;0.70;;;16.50;45.90;;;;;;5107303;27;46917;-16
2021/12/11 04:22:45;;;;;;;0.60;0.60;;;16.50;45.90;;;;;;5107552;27;47742;-16
2021/12/11 04:25:12;;;;;;;1.67;0.73;;;16.50;45.90;;;;;;5107211;27;47005;-16
2021/12/11 04:27:39;;;;;;;2.05;0.57;;;16.50;45.90;;;;;;5107534;27;47017;-16
2021/12/11 04:30:08;;;;;;;0.73;0.60;;;16.50;45.90;;;;;;5107106;27;46886;-16
2021/12/11 04:32:35;;;;;;;0.90;0.90;;;16.50;46.00;;;;;;5107249;27;48218;-17
2021/12/11 04:35:04;;;;;;;0.80;0.80;;;16.50;46.00;;;;;;5106774;27;46896;-16
2021/12/11 04:37:32;;;;;;;0.70;0.70;;;16.50;46.00;;;;;;5107083;27;46865;-16
2021/12/11 04:40:02;;;;;;;0.50;0.50;;;16.50;46.00;;;;;;5107091;27;46935;-16
2021/12/11 04:42:40;;;;;;;0.50;0.50;;;16.50;46.00;;;;;;5107171;27;49028;-16
2021/12/11 04:45:08;;;;;;;0.65;0.60;;;16.40;45.90;;;;;;5106608;27;47165;-16
2021/12/11 04:47:40;;;;;;;0.57;0.57;;;16.50;46.00;;;;;;5107014;27;46891;-16
2021/12/11 04:50:16;;;;;;;0.80;0.68;;;16.50;45.90;;;;;;5107203;27;46893;-16
2021/12/11 04:52:53;;;;;;;1.20;0.60;;;16.50;46.00;;;;;;5106223;27;48218;-16
2021/12/11 04:55:31;;;;;;;1.38;0.70;;;16.50;46.00;;;;;;5106435;27;47092;-16
2021/12/11 04:58:12;;;;;;;0.82;0.73;;;16.50;46.00;;;;;;5106968;27;47340;-16
2021/12/11 05:00:50;;;;;;;1.33;0.80;;;16.50;46.00;;;;;;5107087;27;46904;-16
2021/12/11 05:11:49;;;;;;;1.23;0.70;;;16.50;46.10;;;;;;5106493;27;46988;-17
2021/12/11 05:14:17;;;;;;;1.38;0.82;;;16.40;46.00;;;;;;5106527;27;46966;-16
2021/12/11 05:16:44;;;;;;;0.60;0.57;;;16.40;46.00;;;;;;5106234;27;46830;-16
2021/12/11 05:19:11;;;;;;;0.60;0.60;;;16.40;46.00;;;;;;5106781;27;46930;-16
2021/12/11 05:21:39;;;;;;;0.68;0.55;;;16.40;46.10;;;;;;5106527;27;47048;-24
2021/12/11 05:24:06;;;;;;;0.40;0.40;;;16.40;46.20;;;;;;5106479;27;47852;-25
2021/12/11 05:26:33;;;;;;;0.70;0.70;;;16.40;46.10;;;;;;5106305;27;46989;-25
2021/12/11 05:28:59;;;;;;;1.23;0.70;;;16.40;46.20;;;;;;5106566;27;46834;-25
2021/12/11 05:31:26;;;;;;;1.38;0.50;;;16.40;46.20;;;;;;5106188;27;46836;-25
2021/12/11 05:33:53;;;;;;;0.63;0.50;;;16.40;46.10;;;;;;5106287;27;48156;-25
2021/12/11 05:36:20;;;;;;;0.95;0.60;;;16.40;46.20;;;;;;5106102;27;46735;-25
2021/12/11 05:38:49;;;;;;;0.50;0.50;;;16.40;46.10;;;;;;5106136;27;47023;-25
2021/12/11 05:41:17;;;;;;;1.38;0.60;;;16.40;46.10;;;;;;5106562;27;46841;-25
2021/12/11 05:43:44;;;;;;;1.08;0.60;;;16.40;46.10;;;;;;5106221;27;49020;-25
2021/12/11 05:46:11;;;;;;;1.13;0.60;;;16.40;46.10;;;;;;5105746;27;47063;-25
2021/12/11 05:48:38;;;;;;;0.80;0.50;;;16.40;46.20;;;;;;5105977;27;46956;-25
2021/12/11 05:51:06;;;;;;;0.70;0.70;;;16.40;46.20;;;;;;5106240;27;46857;-24
2021/12/11 05:53:34;;;;;;;0.65;0.50;;;16.40;46.20;;;;;;5106188;27;46897;-25
2021/12/11 05:56:06;;;;;;;0.60;0.57;;;16.40;46.20;;;;;;5105652;27;46929;-25
2021/12/11 05:58:46;;;;;;;1.27;0.70;;;16.40;46.20;;;;;;5106266;27;46798;-25
2021/12/11 06:01:14;;;;;;;0.70;0.70;;;16.40;46.20;;;;;;5106244;27;47136;-25
2021/12/11 06:03:41;;;;;;;1.05;0.80;;;16.40;46.20;;;;;;5108926;27;49037;-25
2021/12/11 06:06:07;;;;;;;1.05;0.60;;;16.40;46.10;;;;;;5112328;27;46963;-25
2021/12/11 06:08:34;;;;;;;0.65;0.50;;;16.40;46.20;;;;;;5112620;27;46881;-16
2021/12/11 06:11:03;;;;;;;0.65;0.60;;;16.40;46.10;;;;;;5112771;27;46906;-25
2021/12/11 06:13:30;;;;;;;0.65;0.50;;;16.40;46.20;;;;;;5112392;27;48032;-25
2021/12/11 06:15:57;;;;;;;0.63;0.63;;;16.40;46.20;;;;;;5112474;27;46801;-25
2021/12/11 06:18:24;;;;;;;0.90;0.60;;;16.40;46.20;;;;;;5112762;27;46810;-16
2021/12/11 06:20:51;;;;;;;0.60;0.60;;;16.40;46.20;;;;;;5112647;27;46885;-16
2021/12/11 06:23:18;;;;;;;0.47;0.47;;;16.30;46.20;;;;;;5112350;27;46915;-24
2021/12/11 06:25:44;;;;;;;0.43;0.43;;;16.40;46.20;;;;;;5112308;27;47161;-25
2021/12/11 06:28:12;;;;;;;0.75;0.60;;;16.40;46.20;;;;;;5112524;27;46894;-25
2021/12/11 06:30:40;;;;;;;0.50;0.50;;;16.40;46.30;;;;;;5112669;27;47016;-25
2021/12/11 06:33:07;;;;;;;0.52;0.50;;;16.40;46.30;;;;;;5112208;27;47915;-25
2021/12/11 06:35:37;;;;;;;0.88;0.50;;;16.40;46.30;;;;;;5112035;27;46875;-25
2021/12/11 06:38:04;;;;;;;1.08;0.63;;;16.40;46.30;;;;;;5112588;27;46738;-25
2021/12/11 06:40:30;;;;;;;0.68;0.68;;;16.40;46.30;;;;;;5112515;27;46879;-25
2021/12/11 06:42:57;;;;;;;0.75;0.70;;;16.40;46.20;;;;;;5112091;27;47976;-24
2021/12/11 06:45:26;;;;;;;0.60;0.60;;;16.40;46.30;;;;;;5111862;27;46826;-25
2021/12/11 06:47:53;;;;;;;1.10;0.60;;;16.40;46.20;;;;;;5112138;27;46948;-25
2021/12/11 06:50:19;;;;;;;0.60;0.60;;;16.40;46.30;;;;;;5112182;27;47054;-25
2021/12/11 06:52:47;;;;;;;0.75;0.50;;;16.40;46.30;;;;;;5112157;27;48110;-25
2021/12/11 06:55:14;;;;;;;0.60;0.60;;;16.40;46.30;;;;;;5111155;27;46821;-17
2021/12/11 06:57:40;;;;;;;0.50;0.50;;;16.30;46.20;;;;;;5112150;27;46807;-16
2021/12/11 07:00:09;;;;;;;0.90;0.77;;;16.40;46.30;;;;;;5112024;27;46818;-16
2021/12/11 07:02:37;;;;;;;1.42;0.63;;;16.40;46.30;;;;;;5111959;27;46917;-17
2021/12/11 07:05:04;;;;;;;0.80;0.73;;;16.40;46.20;;;;;;5107668;27;47393;-16
2021/12/11 07:07:34;;;;;;;0.50;0.50;;;16.40;46.20;;;;;;5097931;27;47004;-17
2021/12/11 07:10:01;;;;;;;0.65;0.65;;;16.40;46.20;;;;;;5096293;27;47022;-17
2021/12/11 07:12:28;;;;;;;0.50;0.50;;;16.40;46.30;;;;;;5096429;27;46894;-16
2021/12/11 07:14:54;;;;;;;0.60;0.60;;;16.40;46.30;;;;;;5088896;27;47100;-16
2021/12/11 07:17:21;;;;;;;0.40;0.40;;;16.40;46.30;;;;;;5088137;28;46804;-17
2021/12/11 07:19:50;;;;;;;0.75;0.75;;;16.40;46.80;;;;;;5087856;28;46887;-16
2021/12/11 07:22:17;;;;;;;0.70;0.70;;;16.40;46.30;;;;;;5087958;28;47942;-25
2021/12/11 07:24:45;;;;;;;0.70;0.70;;;16.40;46.30;;;;;;5087910;28;47070;-25
2021/12/11 07:27:12;;;;;;;0.40;0.40;;;16.40;46.30;;;;;;5087911;28;46883;-25
2021/12/11 07:29:39;;;;;;;0.95;0.60;;;16.40;46.30;;;;;;5088043;28;46981;-17
2021/12/11 07:32:07;;;;;;;0.60;0.60;;;16.40;46.20;;;;;;5087810;27;46755;-17
2021/12/11 07:34:33;;;;;;;0.68;0.68;;;16.40;46.30;;;;;;5087463;28;46831;-17
2021/12/11 07:37:02;;;;;;;0.85;0.73;;;16.40;46.20;;;;;;5087465;28;47030;-18
2021/12/11 07:39:29;;;;;;;0.70;0.50;;;16.40;46.20;;;;;;5087997;27;46913;-16
2021/12/11 07:41:56;;;;;;;0.63;0.60;;;16.40;46.30;;;;;;5087202;28;47872;-16
2021/12/11 07:44:23;;;;;;;0.50;0.50;;;16.40;46.30;;;;;;5087413;28;47019;-16
2021/12/11 07:46:50;;;;;;;0.60;0.60;;;16.40;46.30;;;;;;5087458;27;46882;-25
2021/12/11 07:49:16;;;;;;;0.57;0.57;;;16.40;46.40;;;;;;5087701;28;46937;-25
2021/12/11 07:51:43;;;;;;;0.52;0.52;;;16.40;46.30;;;;;;5087292;28;48797;-25
2021/12/11 07:54:12;;;;;;;0.50;0.50;;;16.40;46.30;;;;;;5087222;28;46838;-25
2021/12/11 07:56:38;;;;;;;0.50;0.50;;;16.40;46.30;;;;;;5086835;28;46944;-25
2021/12/11 07:59:06;;;;;;;0.60;0.60;;;16.40;46.30;;;;;;5087767;28;47100;-25
2021/12/11 08:01:34;;;;;;;0.98;0.70;;;16.40;46.30;;;;;;5086880;28;48072;-25
2021/12/11 08:04:01;;;;;;;0.65;0.65;;;16.40;46.40;;;;;;5087497;28;47010;-25
2021/12/11 08:06:27;;;;;;;0.77;0.50;;;16.40;46.40;;;;;;5087250;28;46830;-25
2021/12/11 08:08:54;;;;;;;1.35;0.77;;;16.40;46.30;;;;;;5087268;28;46915;-25
2021/12/11 08:11:22;;;;;;;0.65;0.60;;;16.40;46.30;;;;;;5086985;28;48911;-25
2021/12/11 08:13:51;;;;;;;0.80;0.80;;;16.40;46.30;;;;;;5087213;28;46880;-21
2021/12/11 08:16:21;;;;;;;0.80;0.65;;;16.40;46.30;;;;;;5086976;28;46807;-16
2021/12/11 08:18:48;;;;;;;0.63;0.60;;;16.40;46.30;;;;;;5087360;28;46921;-26
2021/12/11 08:21:14;;;;;;;0.63;0.50;;;16.40;46.30;;;;;;5086828;28;49193;-25
2021/12/11 08:23:44;;;;;;;0.50;0.50;;;16.30;46.30;;;;;;5087050;28;46990;-25
2021/12/11 08:26:11;;;;;;;0.50;0.50;;;16.40;46.30;;;;;;5085809;27;47059;-25
2021/12/11 08:28:39;;;;;;;0.80;0.80;;;16.40;46.30;;;;;;5086706;28;46878;-25
2021/12/11 08:31:06;;;;;;;0.47;0.47;;;16.40;46.30;;;;;;5086414;28;48891;-16
2021/12/11 08:33:32;;;;;;;0.98;0.65;;;16.30;46.20;;;;;;5086951;28;47233;-16
2021/12/11 08:36:00;;;;;;;0.70;0.70;;;16.40;46.30;;;;;;5086691;28;46860;-17
2021/12/11 08:38:27;;;;;;;0.70;0.60;;;16.40;46.30;;;;;;5087246;28;46901;-16
2021/12/11 08:40:56;;;;;;;0.70;0.70;;;16.40;46.30;;;;;;5086228;28;48883;-16
2021/12/11 08:43:23;;;;;;;0.85;0.70;;;16.40;46.30;;;;;;5086479;28;47060;-17
2021/12/11 08:46:07;;;;;;;0.68;0.60;;;16.40;46.30;;;;;;5086526;28;46855;-25
2021/12/11 08:48:34;;;;;;;0.65;0.50;;;16.40;46.30;;;;;;5087029;28;46957;-25
2021/12/11 08:51:03;;;;;;;0.50;0.50;;;16.40;46.30;;;;;;5086272;28;49060;-16
2021/12/11 08:53:30;;;;;;;0.60;0.60;;;16.40;46.30;;;;;;5086536;28;47552;-16
2021/12/11 08:55:57;;;;;;;1.08;0.52;;;16.40;46.30;;;;;;5085632;28;47108;-16
2021/12/11 08:58:25;;;;;;;0.43;0.43;;;16.40;46.20;;;;;;5086617;28;47482;-17
2021/12/11 09:00:54;;;;;;;0.68;0.63;;;16.40;46.20;;;;;;5086099;28;48887;-16
2021/12/11 09:03:24;;;;;;;0.65;0.65;;;16.40;46.30;;;;;;5086255;28;46810;-16
2021/12/11 09:05:52;;;;;;;0.55;0.55;;;16.40;46.20;;;;;;5086037;28;46910;-16
2021/12/11 09:08:21;;;;;;;0.52;0.52;;;16.40;46.20;;;;;;5086547;28;46983;-17
2021/12/11 09:10:50;;;;;;;0.65;0.65;;;16.40;46.10;;;;;;5086203;27;46986;-16
2021/12/11 09:13:19;;;;;;;0.77;0.50;;;16.60;46.10;;;;;;5085769;28;46932;-16
2021/12/11 09:15:48;;;;;;;0.52;0.50;;;16.80;45.70;;;;;;5085594;28;47013;-25
2021/12/11 09:18:18;;;;;;;0.90;0.70;;;17.20;45.10;;;;;;5086088;28;47226;-16
2021/12/11 09:20:46;;;;;;;1.90;0.70;;;17.40;44.60;;;;;;5085926;28;48791;-16
2021/12/11 09:23:16;;;;;;;0.50;0.50;;;17.70;44.10;;;;;;5086149;28;46905;-17
2021/12/11 09:25:44;;;;;;;0.50;0.50;;;17.90;43.60;;;;;;5085720;28;46901;-17
2021/12/11 09:28:13;;;;;;;0.50;0.50;;;18.10;43.20;;;;;;5085965;28;46891;-17
2021/12/11 09:30:45;;;;;;;0.63;0.57;;;18.20;42.90;;;;;;5085803;28;46802;-17
2021/12/11 09:33:14;;;;;;;0.50;0.50;;;18.40;42.60;;;;;;5085993;28;46866;-16
2021/12/11 09:35:43;;;;;;;0.98;0.50;;;18.50;42.40;;;;;;5085832;28;46798;-16
2021/12/11 09:38:13;;;;;;;0.47;0.47;;;18.60;42.10;;;;;;5085363;28;47305;-17
2021/12/11 09:40:58;;;;;;;0.63;0.60;;;18.70;41.90;;;;;;5085437;28;48089;-17
2021/12/11 09:43:40;;;;;;;0.80;0.70;;;18.80;41.80;;;;;;5085927;28;47303;-16
2021/12/11 09:46:08;;;;;;;0.70;0.70;;;18.90;41.70;;;;;;5085368;28;46767;-18
2021/12/11 09:48:37;;;;;;;0.60;0.60;;;18.90;41.50;;;;;;5085638;28;46871;-17
2021/12/11 09:51:08;;;;;;;0.65;0.65;;;19.00;41.40;;;;;;5085239;28;47064;-17
2021/12/11 09:53:37;;;;;;;0.75;0.75;;;19.00;41.30;;;;;;5085481;28;46960;-16
2021/12/11 09:56:05;;;;;;;0.70;0.70;;;19.10;41.30;;;;;;5084945;27;46875;-25
2021/12/11 09:58:34;;;;;;;0.60;0.60;;;19.10;41.20;;;;;;5085594;28;46915;-25
2021/12/11 10:01:04;;;;;;;0.65;0.65;;;19.20;41.10;;;;;;5085203;28;48934;-25
2021/12/11 10:03:32;;;;;;;0.80;0.60;;;19.20;41.00;;;;;;5085618;27;46924;-25
2021/12/11 10:06:10;;;;;;;0.60;0.60;;;19.30;40.90;;;;;;5085295;28;46957;-25
2021/12/11 10:08:40;;;;;;;0.50;0.50;;;19.30;40.80;;;;;;5085834;28;46967;-25
2021/12/11 10:11:09;;;;;;;0.55;0.55;;;19.30;40.80;;;;;;5085164;28;48102;-25
2021/12/11 10:13:37;;;;;;;0.45;0.45;;;19.40;40.70;;;;;;5085186;28;47039;-25
2021/12/11 10:16:06;;;;;;;0.80;0.80;;;19.40;40.70;;;;;;5085327;28;46899;-24
2021/12/11 10:18:33;;;;;;;0.90;0.70;;;19.40;40.60;;;;;;5085371;28;47144;-24
2021/12/11 10:21:02;;;;;;;0.73;0.45;;;19.40;40.60;;;;;;5084804;28;46911;-24
2021/12/11 10:23:31;;;;;;;2.80;0.80;;;19.50;40.40;;;;;;5085004;28;46972;-24
2021/12/11 10:25:58;;;;;;;2.05;1.08;;;19.50;40.20;;;;;;5085045;28;46990;-24
2021/12/11 10:28:27;;;;;;;2.95;0.70;;;19.50;40.30;;;;;;5085263;28;47345;-24
2021/12/11 10:30:56;;;;;;;0.70;0.70;;;19.50;40.30;;;;;;5084904;28;47071;-25
2021/12/11 10:33:26;;;;;;;1.85;0.93;;;19.50;40.40;;;;;;5085028;28;46962;-25
2021/12/11 10:35:55;;;;;;;1.20;0.75;;;19.60;40.30;;;;;;5084870;28;47049;-25
2021/12/11 10:38:22;;;;;;;0.63;0.63;;;19.60;40.30;;;;;;5085060;28;46887;-24
2021/12/11 10:40:50;;;;;;;1.27;0.60;;;19.70;40.30;;;;;;5084790;28;48951;-24
2021/12/11 10:43:19;;;;;;;0.70;0.70;;;19.60;40.20;;;;;;5085143;28;47533;-24
2021/12/11 10:45:45;;;;;;;0.73;0.73;;;19.70;40.30;;;;;;5084961;28;46824;-25
2021/12/11 10:48:14;;;;;;;0.60;0.60;;;19.70;40.20;;;;;;5085111;28;47295;-17
2021/12/11 10:50:44;;;;;;;0.70;0.70;;;19.70;40.10;;;;;;5085991;28;48130;-16
2021/12/11 10:53:14;;;;;;;4.43;0.90;;;19.80;40.10;;;;;;5088584;28;47003;-16
2021/12/11 10:55:41;;;;;;;2.70;0.80;;;19.80;40.10;;;;;;5087946;28;47020;-16
2021/12/11 10:58:10;;;;;;;1.15;0.70;;;19.80;40.10;;;;;;5098456;27;47064;-17
2021/12/11 11:00:39;;;;;;;1.40;0.95;;;19.80;40.10;;;;;;5108499;27;47523;-16
2021/12/11 11:03:06;;;;;;;1.23;0.70;;;19.80;40.00;;;;;;5108501;27;47206;-17
2021/12/11 11:05:33;;;;;;;1.75;0.70;;;19.90;40.00;;;;;;5108417;27;47001;-16
2021/12/11 11:08:01;;;;;;;0.63;0.63;;;19.90;40.10;;;;;;5108708;27;46921;-17
2021/12/11 11:10:29;;;;;;;1.65;0.70;;;20.00;40.00;;;;;;5108227;27;47070;-16
2021/12/11 11:12:57;;;;;;;0.63;0.63;;;20.00;40.00;;;;;;5108503;27;47265;-17
2021/12/11 11:15:24;;;;;;;0.55;0.55;;;20.00;40.10;;;;;;5108269;27;46813;-16
2021/12/11 11:17:51;;;;;;;1.40;0.70;;;20.00;40.00;;;;;;5108232;27;47071;-17
2021/12/11 11:20:19;;;;;;;0.52;0.52;;;20.00;40.00;;;;;;5108419;27;46818;-17
2021/12/11 11:22:46;;;;;;;1.58;0.75;;;20.00;40.00;;;;;;5108257;27;46830;-16
2021/12/11 11:25:16;;;;;;;0.70;0.70;;;20.00;39.90;;;;;;5108421;27;46830;-16
2021/12/11 11:27:45;;;;;;;0.55;0.55;;;20.10;40.00;;;;;;5108253;27;46903;-16
2021/12/11 11:30:14;;;;;;;0.70;0.70;;;20.10;39.90;;;;;;5108314;27;48883;-16
2021/12/11 11:32:41;;;;;;;0.82;0.63;;;20.10;39.90;;;;;;5108367;27;46826;-17
2021/12/11 11:35:09;;;;;;;0.98;0.90;;;20.10;39.90;;;;;;5108224;27;46886;-16
2021/12/11 11:37:36;;;;;;;0.93;0.70;;;20.20;39.90;;;;;;5108590;27;47123;-18
2021/12/11 11:40:06;;;;;;;0.70;0.63;;;20.20;39.90;;;;;;5108103;27;49172;-17
2021/12/11 11:42:34;;;;;;;0.65;0.63;;;20.20;39.80;;;;;;5107878;27;46818;-17
2021/12/11 11:45:01;;;;;;;1.55;0.70;;;20.20;39.80;;;;;;5107841;27;46967;-16
2021/12/11 11:47:28;;;;;;;0.60;0.60;;;20.20;39.80;;;;;;5108087;27;46915;-17
2021/12/11 11:49:58;;;;;;;1.35;0.70;;;20.20;39.80;;;;;;5107680;27;47879;-16
2021/12/11 11:52:25;;;;;;;0.68;0.68;;;20.30;39.90;;;;;;5108151;27;46904;-25
2021/12/11 11:54:53;;;;;;;0.93;0.50;;;20.30;39.90;;;;;;5107828;27;47334;-25
2021/12/11 11:57:22;;;;;;;0.80;0.75;;;20.30;39.80;;;;;;5108003;27;46900;-25
2021/12/11 11:59:52;;;;;;;1.55;0.70;;;20.30;39.80;;;;;;5107577;27;47858;-25
2021/12/11 12:02:21;;;;;;;0.65;0.65;;;20.30;39.80;;;;;;5107605;27;46941;-25
2021/12/11 12:04:48;;;;;;;0.73;0.73;;;20.30;39.80;;;;;;5107576;27;46842;-25
2021/12/11 12:07:16;;;;;;;1.17;0.70;;;20.30;39.70;;;;;;5107740;27;46880;-27
2021/12/11 12:09:45;;;;;;;2.45;0.70;;;20.40;39.80;;;;;;5107638;27;48046;-25
2021/12/11 12:12:13;;;;;;;4.30;1.00;;;20.40;40.20;;;;;;5107440;27;46895;-26
2021/12/11 12:14:40;;;;;;;5.35;1.05;;;20.40;41.20;;;;;;5107651;27;47250;-28
2021/12/11 12:17:09;;;;;;;2.83;1.20;;;20.40;40.60;;;;;;5107554;27;47196;-27
2021/12/11 12:19:36;;;;;;;2.97;1.20;;;20.50;41.20;;;;;;5107662;27;48198;-26
2021/12/11 12:22:04;;;;;;;3.83;1.02;;;20.60;40.90;;;;;;5107559;27;46846;-27
2021/12/11 12:24:32;;;;;;;4.40;0.98;;;20.60;40.50;;;;;;5107280;27;46968;-25
2021/12/11 12:26:59;;;;;;;2.97;1.10;;;20.70;41.00;;;;;;5086824;27;47315;-26
2021/12/11 12:29:26;;;;;;;2.90;0.90;;;20.80;41.00;;;;;;5102239;27;47072;-28
2021/12/11 12:31:57;;;;;;;1.42;1.02;;;20.90;41.60;;;;;;5089508;27;47193;-24
2021/12/11 12:34:25;;;;;;;1.60;0.95;;;20.90;40.80;;;;;;5099551;27;46896;-25
2021/12/11 12:36:52;;;;;;;1.40;0.80;;;21.00;40.00;;;;;;5097654;27;47447;-24
2021/12/11 12:39:20;;;;;;;3.63;1.13;;;21.00;41.00;;;;;;5093938;27;47848;-25
2021/12/11 12:41:53;;;;;;;6.50;1.52;;;21.10;39.60;;;;;;5087194;27;46947;-30
2021/12/11 12:44:21;;;;;;;10.48;2.33;;;21.10;39.40;;;;;;5097971;27;47117;-29
2021/12/11 12:46:51;;;;;;;8.48;2.10;;;21.10;38.40;;;;;;5089191;27;47146;-26
2021/12/11 12:49:18;;;;;;;10.70;1.95;;;21.00;37.20;;;;;;5099058;27;47926;-26
2021/12/11 12:51:46;;;;;;;10.55;1.98;;;20.80;37.50;;;;;;5094267;27;47149;-29
2021/12/11 12:54:14;;;;;;;17.17;2.25;;;20.90;38.40;;;;;;5095463;27;46875;-27
2021/12/11 12:56:45;;;;;;;20.90;3.28;;;20.90;38.60;;;;;;5084551;27;47141;-27
2021/12/11 12:59:14;;;;;;;17.50;2.40;;;20.90;38.50;;;;;;5095011;27;46904;-28
2021/12/11 13:01:43;;;;;;;20.45;1.90;;;21.00;38.90;;;;;;5093455;27;46949;-27